Pebble, Idaho
Current Conditions -  °F | °C
As of 9:53 PM on Thursday 30 Oct 2014 (Local Time) from KPIH Reporting Station
Clear Clear  
Wind Chill: 44°   Ceiling: Unl
Heat Index: 44°   Visibility: 10mi
Dew Point: 31°   Wind: 3mph
Humidity: 60%   Direction: 10°N
Pressure: 30.09"   Gusts: NA
Location:  42.811°N, 111.938°W
Report Text: KPIH 310353Z AUTO 01003KT 10SM CLR 07/M01 A3009 RMK AO2 SLP185 T00671006
Loading
Personal Weather Stations






























Interactive Weather Map
Tropical Storm Tracking
New forecast layout! Learn more

10-Day Weather Forecast

Advertisements
Track Severe Weather on mobile